Observations
| Time | Sensor | AQI | SAQ | Temp °C | Hum % | Pres Pa | CO μg/m³ | H₂S μg/m³ | NO μg/m³ | NO₂ μg/m³ | O₃ μg/m³ | SO₂ μg/m³ | CO₂e PPM | VOC PPM | PM1 μg/m³ | PM2.5 μg/m³ | PM4 μg/m³ | PM10 μg/m³ | TPS µm |
|---|---|---|---|---|---|---|---|---|---|---|---|---|---|---|---|---|---|---|---|
| Tuesday 11 August 2026 | |||||||||||||||||||
| 11:37 | Trim Market St | 2 | 39.9 | 22 | 66,996 | 0 | 0 | 0 | 12.82 | 95.05 | 2.69 | 0 | 3.12 | 3.43 | |||||
| 11:37 | Trim Patrick St | 1 | 33.9 | 28 | 69,406 | 0 | 0 | 0.43 | 5.16 | 76.94 | 16.96 | 2.86 | 9.41 | 10.36 | |||||
| 11:36 | Trim Market St | 2 | 39.8 | 21 | 66,969 | 0 | 0 | 0 | 15.63 | 88.4 | 0.87 | 0 | 3.14 | 3.45 | |||||
| 11:36 | Trim Patrick St | 1 | 33.9 | 30 | 69,395 | 0 | 0 | 0.43 | 7.41 | 78.34 | 17.58 | 2 | 7.66 | 8.43 | |||||
| 11:35 | Trim Patrick St | 1 | 33.8 | 29 | 69,379 | 0 | 0 | 0.44 | 7.3 | 74.67 | 15.18 | 2.86 | 8.52 | 9.37 | |||||
| 11:34 | Trim Patrick St | 1 | 33.7 | 28 | 69,391 | 0 | 0 | 0.35 | 6.87 | 82.33 | 16.06 | 2.86 | 8.59 | 9.45 | |||||
| 11:33 | Trim Patrick St | 1 | 33.7 | 29 | 69,406 | 0 | 0 | 0.35 | 8.68 | 75.07 | 16.04 | 2 | 7.76 | 8.54 | |||||
| 11:32 | Trim Patrick St | 1 | 33.6 | 29 | 69,397 | 0 | 0 | 0.37 | 11.63 | 107.45 | 16.88 | 2.86 | 9.37 | 10.31 | |||||
| 11:31 | Trim Market St | 2 | 39.3 | 21 | 66,939 | 0 | 0 | 0 | 14.32 | 73.39 | 0 | 0.71 | 4.81 | 5.29 | |||||
| 11:31 | Trim Patrick St | 1 | 33.5 | 29 | 69,387 | 0 | 0 | 0.36 | 11.84 | 73.82 | 15.28 | 2.86 | 9.37 | 10.3 | |||||
| 11:28 | Trim Market St | 1 | 39 | 21 | 66,884 | 0 | 0 | 0 | 14.37 | 82.79 | 0.22 | 0.71 | 4.23 | 4.66 | |||||
| 11:28 | Trim Patrick St | 1 | 33.4 | 30 | 69,406 | 0 | 0 | 0.49 | 7.19 | 71.46 | 14.07 | 2 | 7.66 | 8.42 | |||||
| 11:27 | Trim Market St | 1 | 38.9 | 21 | 66,908 | 0 | 0 | 0 | 19.24 | 63.83 | 0 | 0 | 3.12 | 3.44 | |||||
| 11:26 | Trim Market St | 1 | 38.8 | 22 | 66,882 | 0 | 0 | 0 | 14.07 | 79.92 | 1.08 | 0 | 3.12 | 3.43 | |||||
| 11:26 | Trim Patrick St | 1 | 33.3 | 30 | 69,389 | 0 | 0 | 0.5 | 1.79 | 68.02 | 16.27 | 2.86 | 8.46 | 9.31 | |||||
| 11:25 | Trim Market St | 2 | 38.7 | 22 | 66,880 | 0 | 0 | 0 | 14.19 | 104.02 | 1 | 0 | 4.2 | 4.62 | |||||
| 11:24 | Trim Market St | 2 | 38.6 | 22 | 66,847 | 0 | 0 | 0 | 14.25 | 92.19 | 0.08 | 0 | 3.09 | 3.4 | |||||
| 11:23 | Trim Market St | 1 | 38.4 | 22 | 66,835 | 0 | 0 | 0.01 | 9.42 | 84.38 | 1.74 | 0.71 | 4.75 | 5.23 | |||||
| 11:23 | Trim Patrick St | 1 | 33 | 31 | 69,393 | 0 | 0 | 0.54 | 4.27 | 77.56 | 16.08 | 2 | 7.63 | 8.39 | |||||
| 11:22 | Trim Market St | 2 | 38.3 | 22 | 66,819 | 0 | 0 | 0 | 12.83 | 88.53 | 1.2 | 0.71 | 4.2 | 4.62 | |||||